In Rescue
 
Open Full Screen Window  High Contrast Mode
Wind Gusting 14 knots
06
April 20, 2024 9:20 AM EDT
Weather Information
Wind Direction
  290 °
Wind Speed
  06 kt (7 mph)
Wind Gust
  14 kt (16 mph)
Altimeter
30.04 in
Visibility
10 SM
Temperature
03° C
37° F
Dewpoint
-05° C
23° F
Humidity
56%
Sky Condition
Overcast @ 6,500 ft
Broken @ 4,000 ft
Broken @ 3,300 ft
VFR

METAR KACB 201320Z AUTO 29006G14KT 10SM BKN033 BKN040 OVC065 03/M05 A3004 RMK AO2 T00301046

FAA Disclaimer: The data displayed is for advisory purposes only and is not to be used for flight planning or operations.